Time;durP1;ratioP1;P1;durP2;ratioP2;P2;SDS_P1;SDS_P2;PMS_P1;PMS_P2;Temp;Humidity;BMP_temperature;BMP_pressure;BME280_temperature;BME280_humidity;BME280_pressure;Samples;Min_cycle;Max_cycle;Signal;HPM_P1;HPM_P2
2022/11/11 00:01:48;;;;;;;2.15;1.27;;;;;;;;;;5122190;27;20028;-65
2022/11/11 00:04:15;;;;;;;1.98;1.25;;;;;;;;;;5122110;27;20046;-64
2022/11/11 00:06:42;;;;;;;0.93;0.43;;;;;;;;;;5132169;27;20031;-65
2022/11/11 00:09:09;;;;;;;2.90;1.42;;;;;;;;;;5135812;27;20059;-65
2022/11/11 00:11:37;;;;;;;2.47;1.25;;;;;;;;;;5135855;27;20423;-64
2022/11/11 00:14:03;;;;;;;2.42;1.40;;;;;;;;;;5135686;27;20042;-64
2022/11/11 00:25:04;;;;;;;2.60;1.35;;;;;;;;;;5113313;27;20059;-64
2022/11/11 00:25:04;;;;;;;;;;;;;;;;;;5125134;27;20047;-64
2022/11/11 00:27:31;;;;;;;7.37;2.83;;;;;;;;;;5112507;28;20011;-64
2022/11/11 00:29:58;;;;;;;1.77;1.07;;;;;;;;;;5115250;28;20051;-65
2022/11/11 00:32:29;;;;;;;5.47;1.80;;;;;;;;;;5117880;27;20035;-64
2022/11/11 00:37:42;;;;;;;1.53;0.80;;;;;;;;;;5131692;27;20530;-65
2022/11/11 00:40:10;;;;;;;2.87;1.53;;;;;;;;;;5124448;27;20485;-66
2022/11/11 00:42:37;;;;;;;2.40;1.50;;;;;;;;;;5116163;27;20105;-66
2022/11/11 00:45:04;;;;;;;5.67;1.80;;;;;;;;;;5130147;27;20019;-64
2022/11/11 00:53:04;;;;;;;2.83;1.27;;;;;;;;;;5127812;27;20055;-66
2022/11/11 00:55:31;;;;;;;2.60;1.60;;;;;;;;;;5120779;27;20027;-66
2022/11/11 00:57:58;;;;;;;3.17;2.17;;;;;;;;;;5125796;27;20027;-64
2022/11/11 01:00:25;;;;;;;2.27;1.10;;;;;;;;;;5119544;27;20023;-64
2022/11/11 01:02:51;;;;;;;5.60;2.07;;;;;;;;;;5117382;27;20035;-65
2022/11/11 01:05:18;;;;;;;2.83;1.53;;;;;;;;;;5113951;27;20035;-65
2022/11/11 01:07:44;;;;;;;3.53;1.67;;;;;;;;;;5110213;27;20351;-65
2022/11/11 01:10:11;;;;;;;2.67;1.00;;;;;;;;;;5111093;27;20521;-64
2022/11/11 01:12:38;;;;;;;10.17;2.33;;;;;;;;;;5112378;28;20517;-66
2022/11/11 01:15:05;;;;;;;6.10;2.23;;;;;;;;;;5114496;28;20504;-65
2022/11/11 01:17:32;;;;;;;3.33;1.87;;;;;;;;;;5114248;28;20932;-65
2022/11/11 01:19:58;;;;;;;2.87;1.70;;;;;;;;;;5120077;27;20019;-64
2022/11/11 01:22:25;;;;;;;5.23;1.60;;;;;;;;;;5124769;27;20103;-65
2022/11/11 01:24:51;;;;;;;2.03;1.10;;;;;;;;;;5119560;27;20023;-65
2022/11/11 01:27:18;;;;;;;2.13;1.20;;;;;;;;;;5117750;27;20065;-66
2022/11/11 01:29:45;;;;;;;3.20;1.70;;;;;;;;;;5108558;28;20020;-64
2022/11/11 01:32:12;;;;;;;1.07;0.93;;;;;;;;;;5118949;27;20201;-65
2022/11/11 01:34:38;;;;;;;1.80;1.20;;;;;;;;;;5117054;27;20041;-65
2022/11/11 01:37:05;;;;;;;3.97;0.90;;;;;;;;;;5131722;27;20066;-64
2022/11/11 01:39:31;;;;;;;3.07;1.80;;;;;;;;;;5124755;27;20343;-64
2022/11/11 01:41:58;;;;;;;2.23;1.27;;;;;;;;;;5134200;27;20419;-66
2022/11/11 01:44:45;;;;;;;4.20;1.57;;;;;;;;;;5116070;27;20027;-66
2022/11/11 01:47:11;;;;;;;1.73;0.80;;;;;;;;;;5130516;27;20016;-65
2022/11/11 01:49:44;;;;;;;10.43;2.20;;;;;;;;;;5115635;27;20024;-65
2022/11/11 01:52:32;;;;;;;1.67;1.30;;;;;;;;;;5108116;28;20046;-65
2022/11/11 01:55:02;;;;;;;4.47;1.10;;;;;;;;;;5108397;28;20035;-65
2022/11/11 01:57:33;;;;;;;4.67;2.10;;;;;;;;;;5112094;28;20019;-64
2022/11/11 02:00:11;;;;;;;3.40;1.17;;;;;;;;;;5114578;27;20366;-64
2022/11/11 02:02:47;;;;;;;1.37;0.97;;;;;;;;;;5112819;28;20022;-64
2022/11/11 02:08:02;;;;;;;3.73;1.33;;;;;;;;;;5131674;27;20073;-64
2022/11/11 02:10:31;;;;;;;2.70;1.17;;;;;;;;;;5117568;27;20466;-64
2022/11/11 02:15:43;;;;;;;3.13;0.65;;;;;;;;;;5128281;27;20123;-65
2022/11/11 02:18:09;;;;;;;1.53;0.90;;;;;;;;;;5114472;27;20030;-64
2022/11/11 02:20:40;;;;;;;5.87;1.67;;;;;;;;;;5113231;28;20409;-64
2022/11/11 02:23:27;;;;;;;5.90;0.93;;;;;;;;;;5117216;27;20027;-64
2022/11/11 02:25:54;;;;;;;4.87;1.27;;;;;;;;;;5133682;27;20026;-64
2022/11/11 02:28:22;;;;;;;5.13;1.03;;;;;;;;;;5132124;27;20046;-64
2022/11/11 02:30:48;;;;;;;0.53;0.40;;;;;;;;;;5113495;27;20427;-64
2022/11/11 02:33:15;;;;;;;0.97;0.70;;;;;;;;;;5107674;28;20043;-64
2022/11/11 02:35:45;;;;;;;1.57;0.70;;;;;;;;;;5109391;27;20088;-64
2022/11/11 02:38:12;;;;;;;2.33;0.77;;;;;;;;;;5117899;27;20019;-64
2022/11/11 02:43:27;;;;;;;2.30;1.33;;;;;;;;;;5100976;27;20031;-65
2022/11/11 02:45:54;;;;;;;4.60;1.33;;;;;;;;;;5112771;28;20057;-64
2022/11/11 02:48:21;;;;;;;1.77;0.80;;;;;;;;;;5112607;28;20077;-65
2022/11/11 02:50:48;;;;;;;0.70;0.70;;;;;;;;;;5112766;28;20355;-64
2022/11/11 02:53:14;;;;;;;1.43;0.93;;;;;;;;;;5110339;28;20559;-64
2022/11/11 02:55:41;;;;;;;1.93;1.00;;;;;;;;;;5107602;28;20028;-64
2022/11/11 02:58:08;;;;;;;1.80;0.80;;;;;;;;;;5108372;28;20106;-64
2022/11/11 03:00:35;;;;;;;2.13;1.23;;;;;;;;;;5108387;28;20046;-64
2022/11/11 03:03:01;;;;;;;1.40;0.87;;;;;;;;;;5110571;28;20028;-64
2022/11/11 03:05:28;;;;;;;2.23;1.23;;;;;;;;;;5114220;28;20042;-65
2022/11/11 03:07:55;;;;;;;1.30;0.87;;;;;;;;;;5113568;28;20059;-64
2022/11/11 03:10:21;;;;;;;1.17;0.70;;;;;;;;;;5130170;28;20031;-64
2022/11/11 03:12:48;;;;;;;1.10;0.70;;;;;;;;;;5113504;28;20040;-65
2022/11/11 03:15:15;;;;;;;3.07;1.20;;;;;;;;;;5102248;27;20019;-64
2022/11/11 03:17:41;;;;;;;3.20;1.90;;;;;;;;;;5130163;27;20023;-64
2022/11/11 03:23:00;;;;;;;5.00;2.03;;;;;;;;;;5119414;27;20092;-64
2022/11/11 03:25:39;;;;;;;2.80;1.43;;;;;;;;;;5133029;27;20381;-64
2022/11/11 03:28:09;;;;;;;2.87;0.50;;;;;;;;;;5136712;27;20096;-63
2022/11/11 03:30:36;;;;;;;1.73;0.93;;;;;;;;;;5118448;27;20032;-64
2022/11/11 03:33:02;;;;;;;3.70;0.87;;;;;;;;;;5127327;27;20035;-63
2022/11/11 03:35:29;;;;;;;2.53;1.37;;;;;;;;;;5124003;27;20385;-64
2022/11/11 03:40:42;;;;;;;1.20;0.80;;;;;;;;;;5124955;27;20046;-63
2022/11/11 03:43:08;;;;;;;1.70;0.80;;;;;;;;;;5129208;27;20492;-64
2022/11/11 03:45:35;;;;;;;2.50;1.67;;;;;;;;;;5111817;27;20096;-64
2022/11/11 03:48:02;;;;;;;15.23;1.50;;;;;;;;;;5116973;27;20022;-64
2022/11/11 03:50:29;;;;;;;1.37;0.83;;;;;;;;;;5123873;27;20484;-64
2022/11/11 03:52:55;;;;;;;3.87;1.40;;;;;;;;;;5115827;28;20027;-64
2022/11/11 03:55:22;;;;;;;2.07;1.30;;;;;;;;;;5127609;27;20030;-64
2022/11/11 03:57:49;;;;;;;1.80;1.00;;;;;;;;;;5136021;27;20079;-65
2022/11/11 04:00:17;;;;;;;4.93;1.77;;;;;;;;;;5133495;27;20023;-64
2022/11/11 04:11:03;;;;;;;0.93;0.67;;;;;;;;;;5121125;27;20043;-63
2022/11/11 04:16:15;;;;;;;1.30;0.90;;;;;;;;;;5133922;27;20050;-63
2022/11/11 04:21:43;;;;;;;3.22;1.23;;;;;;;;;;5135959;27;20582;-64
2022/11/11 04:27:06;;;;;;;4.82;1.02;;;;;;;;;;5109883;27;20083;-64
2022/11/11 04:29:32;;;;;;;1.27;0.80;;;;;;;;;;5114900;27;20026;-64
2022/11/11 04:34:53;;;;;;;3.27;1.00;;;;;;;;;;5153396;27;20488;-63
2022/11/11 04:37:20;;;;;;;1.50;0.80;;;;;;;;;;5135713;27;20026;-63
2022/11/11 04:42:33;;;;;;;2.90;1.23;;;;;;;;;;5135974;27;20095;-63
2022/11/11 04:48:02;;;;;;;1.48;0.80;;;;;;;;;;5110210;28;20065;-63
2022/11/11 04:50:32;;;;;;;1.20;1.00;;;;;;;;;;5119254;27;20066;-63
2022/11/11 04:52:59;;;;;;;1.10;0.90;;;;;;;;;;5129569;27;20066;-63
2022/11/11 04:58:11;;;;;;;0.97;0.77;;;;;;;;;;5135242;27;20054;-63
2022/11/11 05:00:38;;;;;;;0.97;0.80;;;;;;;;;;5132632;27;20019;-64
2022/11/11 05:03:23;;;;;;;1.20;0.77;;;;;;;;;;5134953;27;20035;-63
2022/11/11 05:11:21;;;;;;;1.83;1.10;;;;;;;;;;5120200;27;20081;-63
2022/11/11 05:22:21;;;;;;;3.15;0.70;;;;;;;;;;5120893;27;20194;-63
2022/11/11 05:27:33;;;;;;;0.70;0.63;;;;;;;;;;5113937;27;20555;-63
2022/11/11 05:30:00;;;;;;;1.30;0.83;;;;;;;;;;5110455;27;20027;-63
2022/11/11 05:32:26;;;;;;;0.80;0.50;;;;;;;;;;5117451;27;20034;-63
2022/11/11 05:34:54;;;;;;;0.73;0.57;;;;;;;;;;5116905;27;20030;-63
2022/11/11 05:37:23;;;;;;;1.00;0.90;;;;;;;;;;5107872;28;20472;-61
2022/11/11 05:39:50;;;;;;;0.60;0.40;;;;;;;;;;5124453;27;20135;-62
2022/11/11 05:42:17;;;;;;;1.17;0.70;;;;;;;;;;5127479;27;20026;-63
2022/11/11 05:44:45;;;;;;;7.33;1.00;;;;;;;;;;5114640;27;20496;-64
2022/11/11 05:47:12;;;;;;;1.47;1.13;;;;;;;;;;5121206;27;20031;-63
2022/11/11 05:49:38;;;;;;;8.83;1.13;;;;;;;;;;5113972;27;20019;-63
2022/11/11 05:52:06;;;;;;;4.23;0.87;;;;;;;;;;5130213;27;20494;-63
2022/11/11 05:54:32;;;;;;;1.83;1.30;;;;;;;;;;5128590;27;20043;-63
2022/11/11 05:56:59;;;;;;;3.23;1.17;;;;;;;;;;5128383;27;20057;-63
2022/11/11 05:59:26;;;;;;;2.07;1.10;;;;;;;;;;5128338;27;20027;-63
2022/11/11 06:01:52;;;;;;;1.63;0.90;;;;;;;;;;5130827;27;20027;-63
2022/11/11 06:04:19;;;;;;;0.90;0.70;;;;;;;;;;5121109;27;20028;-63
2022/11/11 06:06:46;;;;;;;0.83;0.80;;;;;;;;;;5154739;27;20019;-63
2022/11/11 06:09:13;;;;;;;1.13;0.73;;;;;;;;;;5146210;27;20065;-63
2022/11/11 06:11:40;;;;;;;1.73;1.27;;;;;;;;;;5133866;27;20110;-63
2022/11/11 06:14:06;;;;;;;2.47;1.50;;;;;;;;;;5131165;27;20035;-62
2022/11/11 06:16:33;;;;;;;3.50;1.23;;;;;;;;;;5128471;27;20048;-63
2022/11/11 06:19:02;;;;;;;4.67;2.50;;;;;;;;;;5128344;27;20027;-63
2022/11/11 06:21:31;;;;;;;1.60;1.00;;;;;;;;;;5112233;27;20035;-63
2022/11/11 06:23:57;;;;;;;2.10;0.83;;;;;;;;;;5124779;27;20027;-64
2022/11/11 06:26:24;;;;;;;1.60;1.03;;;;;;;;;;5113081;28;20031;-63
2022/11/11 06:28:55;;;;;;;2.30;1.43;;;;;;;;;;5129507;27;20027;-63
2022/11/11 06:31:25;;;;;;;0.93;0.73;;;;;;;;;;5119442;27;20020;-63
2022/11/11 06:33:52;;;;;;;5.23;1.57;;;;;;;;;;5112865;28;20042;-63
2022/11/11 06:36:21;;;;;;;17.07;1.53;;;;;;;;;;5110009;28;20024;-63
2022/11/11 06:38:48;;;;;;;0.93;0.83;;;;;;;;;;5107143;28;20030;-63
2022/11/11 06:41:15;;;;;;;1.70;0.93;;;;;;;;;;5107553;28;20415;-63
2022/11/11 06:43:42;;;;;;;2.10;1.43;;;;;;;;;;5107535;28;20106;-62
2022/11/11 06:46:22;;;;;;;1.20;0.77;;;;;;;;;;5126555;27;20031;-63
2022/11/11 06:48:48;;;;;;;1.67;1.07;;;;;;;;;;5112844;28;20024;-63
2022/11/11 06:51:15;;;;;;;1.87;1.10;;;;;;;;;;5117818;28;20122;-63
2022/11/11 06:53:42;;;;;;;1.57;1.10;;;;;;;;;;5132527;27;20104;-63
2022/11/11 06:56:11;;;;;;;3.20;1.90;;;;;;;;;;5133192;28;20099;-63
2022/11/11 06:58:38;;;;;;;1.53;1.07;;;;;;;;;;5130194;28;20075;-63
2022/11/11 07:01:05;;;;;;;0.83;0.70;;;;;;;;;;5127610;28;20023;-63
2022/11/11 07:03:32;;;;;;;2.37;1.47;;;;;;;;;;5127422;28;20023;-63
2022/11/11 07:06:04;;;;;;;0.57;0.50;;;;;;;;;;5108185;28;20042;-63
2022/11/11 07:08:31;;;;;;;1.17;0.80;;;;;;;;;;5108455;28;20042;-63
2022/11/11 07:10:57;;;;;;;3.33;1.20;;;;;;;;;;5112451;28;20485;-63
2022/11/11 07:13:24;;;;;;;0.97;0.73;;;;;;;;;;5112418;28;20440;-62
2022/11/11 07:15:51;;;;;;;0.60;0.40;;;;;;;;;;5112424;28;20019;-63
2022/11/11 07:18:18;;;;;;;2.30;0.90;;;;;;;;;;5128848;28;20429;-63
2022/11/11 07:20:45;;;;;;;2.17;0.97;;;;;;;;;;5110101;28;20031;-63
2022/11/11 07:23:12;;;;;;;0.40;0.40;;;;;;;;;;5112945;28;20075;-62
2022/11/11 07:25:38;;;;;;;1.00;0.70;;;;;;;;;;5120188;28;20024;-63
2022/11/11 07:28:05;;;;;;;1.17;0.90;;;;;;;;;;5108170;28;20053;-63
2022/11/11 07:30:32;;;;;;;0.97;0.80;;;;;;;;;;5138379;27;20031;-63
2022/11/11 07:32:58;;;;;;;0.43;0.40;;;;;;;;;;5153458;27;20109;-63
2022/11/11 07:35:25;;;;;;;0.93;0.70;;;;;;;;;;5136945;27;20027;-63
2022/11/11 07:37:52;;;;;;;5.77;1.33;;;;;;;;;;5132758;28;20039;-63
2022/11/11 07:40:19;;;;;;;1.93;1.17;;;;;;;;;;5132787;28;20365;-62
2022/11/11 07:42:46;;;;;;;1.47;1.07;;;;;;;;;;5130478;28;20532;-63
2022/11/11 07:45:13;;;;;;;0.90;0.67;;;;;;;;;;5127586;28;20019;-63
2022/11/11 07:47:42;;;;;;;1.67;1.00;;;;;;;;;;5144577;27;20064;-63
2022/11/11 07:50:09;;;;;;;1.27;0.47;;;;;;;;;;5148132;27;20492;-63
2022/11/11 07:52:36;;;;;;;0.90;0.60;;;;;;;;;;5148793;27;20044;-61
2022/11/11 07:55:03;;;;;;;0.70;0.50;;;;;;;;;;5153485;27;20069;-62
2022/11/11 07:57:38;;;;;;;0.40;0.40;;;;;;;;;;5153161;27;20102;-63
2022/11/11 08:00:05;;;;;;;0.87;0.70;;;;;;;;;;5153406;27;20454;-62
2022/11/11 08:02:32;;;;;;;1.50;1.13;;;;;;;;;;5157264;27;20098;-61
2022/11/11 08:04:59;;;;;;;0.40;0.40;;;;;;;;;;5155802;27;20094;-61
2022/11/11 08:07:26;;;;;;;0.40;0.30;;;;;;;;;;5151670;27;20480;-62
2022/11/11 08:09:52;;;;;;;1.43;0.83;;;;;;;;;;5151538;27;20053;-62
2022/11/11 08:15:05;;;;;;;0.80;0.73;;;;;;;;;;5111572;28;20053;-62
2022/11/11 08:17:36;;;;;;;0.60;0.50;;;;;;;;;;5126399;27;20549;-61
2022/11/11 08:20:03;;;;;;;2.00;0.80;;;;;;;;;;5132150;27;20142;-61
2022/11/11 08:22:29;;;;;;;1.03;0.83;;;;;;;;;;5122535;27;20034;-61
2022/11/11 08:24:56;;;;;;;1.57;0.83;;;;;;;;;;5130831;27;20397;-62
2022/11/11 08:27:23;;;;;;;3.20;1.47;;;;;;;;;;5116607;27;20072;-62
2022/11/11 08:29:50;;;;;;;0.47;0.40;;;;;;;;;;5128754;27;20426;-62
2022/11/11 08:32:16;;;;;;;1.33;1.03;;;;;;;;;;5119001;27;20106;-61
2022/11/11 08:34:43;;;;;;;0.70;0.67;;;;;;;;;;5109611;28;20028;-61
2022/11/11 08:37:10;;;;;;;1.33;0.93;;;;;;;;;;5110548;27;20063;-61
2022/11/11 08:39:36;;;;;;;3.53;0.77;;;;;;;;;;5129855;27;20027;-62
2022/11/11 08:42:03;;;;;;;0.90;0.50;;;;;;;;;;5115208;27;20482;-62
2022/11/11 08:44:30;;;;;;;5.63;1.23;;;;;;;;;;5121286;27;20031;-61
2022/11/11 08:46:56;;;;;;;1.50;1.17;;;;;;;;;;5135337;27;20031;-61
2022/11/11 08:49:23;;;;;;;1.03;0.77;;;;;;;;;;5134409;27;20023;-62
2022/11/11 08:51:50;;;;;;;0.40;0.40;;;;;;;;;;5114970;27;20051;-61
2022/11/11 08:54:17;;;;;;;0.53;0.53;;;;;;;;;;5109447;27;20386;-62
2022/11/11 08:56:43;;;;;;;0.80;0.60;;;;;;;;;;5109543;28;20461;-62
2022/11/11 08:59:10;;;;;;;0.43;0.43;;;;;;;;;;5109513;28;20092;-62
2022/11/11 09:01:37;;;;;;;1.23;0.93;;;;;;;;;;5114605;28;20078;-61
2022/11/11 09:04:04;;;;;;;1.27;0.60;;;;;;;;;;5114718;27;20052;-61
2022/11/11 09:06:31;;;;;;;0.60;0.40;;;;;;;;;;5130710;27;20027;-61
2022/11/11 09:08:57;;;;;;;1.03;0.70;;;;;;;;;;5134818;27;20386;-61
2022/11/11 09:11:24;;;;;;;1.20;0.80;;;;;;;;;;5134419;27;20417;-61
2022/11/11 09:13:50;;;;;;;0.63;0.50;;;;;;;;;;5129443;27;20212;-63
2022/11/11 09:16:17;;;;;;;0.53;0.43;;;;;;;;;;5129653;27;20024;-61
2022/11/11 09:18:44;;;;;;;1.30;0.90;;;;;;;;;;5108988;28;20328;-61
2022/11/11 09:21:10;;;;;;;1.27;0.90;;;;;;;;;;5120703;27;20034;-61
2022/11/11 09:23:37;;;;;;;1.67;1.03;;;;;;;;;;5129091;27;20061;-61
2022/11/11 09:26:04;;;;;;;1.00;0.47;;;;;;;;;;5119151;27;20034;-62
2022/11/11 09:28:32;;;;;;;0.33;0.33;;;;;;;;;;5127927;27;20110;-61
2022/11/11 09:31:00;;;;;;;0.80;0.80;;;;;;;;;;5130564;27;20031;-63
2022/11/11 09:33:26;;;;;;;1.67;0.93;;;;;;;;;;5120731;27;20027;-61
2022/11/11 09:35:53;;;;;;;0.50;0.47;;;;;;;;;;5115833;27;20063;-61
2022/11/11 09:38:20;;;;;;;0.77;0.67;;;;;;;;;;5125342;27;20027;-61
2022/11/11 09:40:46;;;;;;;1.07;0.97;;;;;;;;;;5128847;27;20054;-61
2022/11/11 09:43:25;;;;;;;0.50;0.50;;;;;;;;;;5116968;27;20459;-61
2022/11/11 09:46:10;;;;;;;1.13;0.80;;;;;;;;;;5113045;28;20076;-61
2022/11/11 09:48:52;;;;;;;0.30;0.30;;;;;;;;;;5113831;27;20035;-61
2022/11/11 09:51:23;;;;;;;6.03;1.33;;;;;;;;;;5113556;27;20019;-62
2022/11/11 09:53:54;;;;;;;0.80;0.60;;;;;;;;;;5114175;27;20035;-61
2022/11/11 09:56:23;;;;;;;0.57;0.40;;;;;;;;;;5121176;27;20402;-61
2022/11/11 09:58:56;;;;;;;1.83;1.03;;;;;;;;;;5128331;27;20023;-62
2022/11/11 10:01:24;;;;;;;1.17;1.00;;;;;;;;;;5127484;27;20034;-61
2022/11/11 10:03:58;;;;;;;0.67;0.67;;;;;;;;;;5108230;28;20027;-61
2022/11/11 10:06:30;;;;;;;1.43;1.00;;;;;;;;;;5090958;28;20464;-61
2022/11/11 10:09:02;;;;;;;0.77;0.67;;;;;;;;;;5133871;27;20064;-61
2022/11/11 10:11:34;;;;;;;4.17;0.77;;;;;;;;;;5133525;27;20023;-61
2022/11/11 10:14:01;;;;;;;0.90;0.70;;;;;;;;;;5133864;27;20035;-61
2022/11/11 10:16:28;;;;;;;1.13;0.73;;;;;;;;;;5129759;27;20028;-61
2022/11/11 10:19:13;;;;;;;0.93;0.60;;;;;;;;;;5110546;27;20084;-62
2022/11/11 10:21:44;;;;;;;1.88;0.90;;;;;;;;;;5108935;28;20080;-62
2022/11/11 10:24:16;;;;;;;0.50;0.50;;;;;;;;;;5125591;27;20041;-61
2022/11/11 10:26:44;;;;;;;2.63;1.20;;;;;;;;;;5107691;28;20054;-61
2022/11/11 10:29:22;;;;;;;3.37;0.77;;;;;;;;;;5109498;28;20027;-61
2022/11/11 10:32:06;;;;;;;1.30;0.80;;;;;;;;;;5112980;27;20494;-61
2022/11/11 10:34:34;;;;;;;0.65;0.55;;;;;;;;;;5112703;28;20040;-61
2022/11/11 10:37:01;;;;;;;0.70;0.53;;;;;;;;;;5114142;27;20055;-61
2022/11/11 10:39:45;;;;;;;2.03;1.43;;;;;;;;;;5112504;28;20410;-62
2022/11/11 10:42:16;;;;;;;0.87;0.60;;;;;;;;;;5108665;28;20028;-61
2022/11/11 10:44:44;;;;;;;0.57;0.57;;;;;;;;;;5107592;28;20063;-61
2022/11/11 10:47:29;;;;;;;0.30;0.30;;;;;;;;;;5107497;28;20124;-61
2022/11/11 10:50:22;;;;;;;1.00;0.70;;;;;;;;;;5107251;28;20031;-61
2022/11/11 10:52:54;;;;;;;0.77;0.57;;;;;;;;;;5117561;27;20385;-61
2022/11/11 10:55:24;;;;;;;2.63;1.00;;;;;;;;;;5132551;27;20098;-62
2022/11/11 10:57:57;;;;;;;0.80;0.60;;;;;;;;;;5117306;28;20044;-61
2022/11/11 11:00:24;;;;;;;1.10;0.67;;;;;;;;;;5132900;28;20023;-61
2022/11/11 11:03:09;;;;;;;2.70;1.43;;;;;;;;;;5132326;28;20027;-62
2022/11/11 11:05:42;;;;;;;1.17;0.85;;;;;;;;;;5127312;28;20477;-61
2022/11/11 11:08:19;;;;;;;1.83;1.27;;;;;;;;;;5127428;28;20034;-61
2022/11/11 11:10:49;;;;;;;2.43;1.37;;;;;;;;;;5111915;28;20428;-61
2022/11/11 11:13:17;;;;;;;0.67;0.60;;;;;;;;;;5108483;28;20044;-61
2022/11/11 11:15:48;;;;;;;0.70;0.70;;;;;;;;;;5112423;28;20020;-61
2022/11/11 11:18:15;;;;;;;1.70;1.07;;;;;;;;;;5113377;28;20110;-61
2022/11/11 11:20:55;;;;;;;1.07;0.97;;;;;;;;;;5112485;28;20049;-61
2022/11/11 11:23:51;;;;;;;0.63;0.43;;;;;;;;;;5126553;28;20470;-61
2022/11/11 11:26:17;;;;;;;0.75;0.73;;;;;;;;;;5099611;28;20429;-61
2022/11/11 11:28:55;;;;;;;1.63;1.17;;;;;;;;;;5114531;28;20503;-61
2022/11/11 11:31:34;;;;;;;1.90;1.50;;;;;;;;;;5119717;28;20035;-61
2022/11/11 11:34:01;;;;;;;1.00;0.70;;;;;;;;;;5125064;28;20043;-62
2022/11/11 11:36:28;;;;;;;1.20;0.90;;;;;;;;;;5132846;27;20059;-61
2022/11/11 11:38:54;;;;;;;0.40;0.37;;;;;;;;;;5129412;27;20024;-61
2022/11/11 11:41:40;;;;;;;4.00;0.97;;;;;;;;;;5116251;28;20020;-61
2022/11/11 11:44:25;;;;;;;2.00;0.73;;;;;;;;;;5116095;28;20027;-61
2022/11/11 11:46:54;;;;;;;0.38;0.38;;;;;;;;;;5133617;27;20031;-61
2022/11/11 11:49:27;;;;;;;1.77;0.80;;;;;;;;;;5131257;27;20024;-61
2022/11/11 11:52:09;;;;;;;1.90;1.40;;;;;;;;;;5130948;27;20043;-61
2022/11/11 11:54:42;;;;;;;1.30;1.10;;;;;;;;;;5110384;28;20134;-61
2022/11/11 11:57:29;;;;;;;1.40;1.30;;;;;;;;;;5110535;27;20028;-61
2022/11/11 12:00:00;;;;;;;1.97;1.50;;;;;;;;;;5064627;28;20381;-61
2022/11/11 12:02:47;;;;;;;3.33;1.80;;;;;;;;;;5115884;27;20030;-61
2022/11/11 12:05:26;;;;;;;0.67;0.57;;;;;;;;;;5129716;27;20034;-61
2022/11/11 12:07:55;;;;;;;2.27;1.53;;;;;;;;;;5116948;27;20042;-61
2022/11/11 12:10:30;;;;;;;1.70;1.40;;;;;;;;;;5113474;28;20031;-61
2022/11/11 12:13:05;;;;;;;0.52;0.52;;;;;;;;;;5110429;28;20067;-61
2022/11/11 12:15:35;;;;;;;0.90;0.80;;;;;;;;;;5110154;28;20036;-61
2022/11/11 12:18:34;;;;;;;3.00;2.00;;;;;;;;;;5110001;27;20015;-61
2022/11/11 12:21:13;;;;;;;1.50;1.20;;;;;;;;;;5057699;28;20032;-61
2022/11/11 12:23:55;;;;;;;1.50;1.17;;;;;;;;;;5130653;27;20035;-61
2022/11/11 12:26:27;;;;;;;0.80;0.63;;;;;;;;;;5136026;27;20027;-61
2022/11/11 12:28:57;;;;;;;7.43;2.33;;;;;;;;;;5118733;27;20032;-61
2022/11/11 12:31:36;;;;;;;4.40;2.20;;;;;;;;;;5115297;28;20020;-61
2022/11/11 12:34:12;;;;;;;1.27;1.17;;;;;;;;;;5116540;27;20031;-62
2022/11/11 12:36:45;;;;;;;3.23;1.50;;;;;;;;;;5130068;27;20081;-61
2022/11/11 12:39:22;;;;;;;3.27;2.37;;;;;;;;;;5129848;27;20377;-61
2022/11/11 12:42:11;;;;;;;2.77;1.63;;;;;;;;;;5130265;27;20038;-61
2022/11/11 12:44:51;;;;;;;1.93;1.43;;;;;;;;;;5135585;27;20477;-62
2022/11/11 12:47:18;;;;;;;1.73;1.37;;;;;;;;;;5134492;27;20023;-61
2022/11/11 12:49:57;;;;;;;3.70;2.03;;;;;;;;;;5115075;28;20026;-61
2022/11/11 12:52:34;;;;;;;1.77;1.43;;;;;;;;;;5114704;28;20034;-61
2022/11/11 12:55:00;;;;;;;1.10;1.00;;;;;;;;;;5112196;27;20493;-62
2022/11/11 12:57:45;;;;;;;1.93;1.37;;;;;;;;;;5113022;27;20062;-61
2022/11/11 13:00:17;;;;;;;2.03;1.73;;;;;;;;;;5129696;27;20058;-61
2022/11/11 13:02:48;;;;;;;2.63;1.87;;;;;;;;;;5129635;27;20019;-61
2022/11/11 13:05:20;;;;;;;1.97;1.60;;;;;;;;;;5120758;27;20404;-61
2022/11/11 13:08:12;;;;;;;3.20;2.07;;;;;;;;;;5115480;27;20102;-61
2022/11/11 13:10:54;;;;;;;1.40;1.20;;;;;;;;;;5117494;27;20496;-62
2022/11/11 13:13:38;;;;;;;1.47;1.20;;;;;;;;;;5113979;28;20035;-62
2022/11/11 13:16:04;;;;;;;2.13;1.67;;;;;;;;;;5114531;28;20070;-62
2022/11/11 13:19:03;;;;;;;3.47;2.50;;;;;;;;;;5109076;28;20421;-62
2022/11/11 13:21:50;;;;;;;2.27;1.80;;;;;;;;;;5053257;28;20039;-62
2022/11/11 13:24:19;;;;;;;1.77;1.60;;;;;;;;;;5111494;27;20034;-62
2022/11/11 13:27:02;;;;;;;2.83;2.00;;;;;;;;;;5129802;27;20102;-62
2022/11/11 13:29:47;;;;;;;6.30;1.90;;;;;;;;;;5116915;27;20085;-62
2022/11/11 13:32:16;;;;;;;3.15;2.30;;;;;;;;;;5139399;27;20072;-62
2022/11/11 13:34:43;;;;;;;5.80;2.67;;;;;;;;;;5136896;27;20376;-62
2022/11/11 13:37:18;;;;;;;3.10;2.33;;;;;;;;;;5140411;27;20497;-62
2022/11/11 13:39:47;;;;;;;2.77;2.30;;;;;;;;;;5131652;27;20031;-62
2022/11/11 13:42:19;;;;;;;3.60;2.77;;;;;;;;;;5129010;27;20042;-62
2022/11/11 13:44:46;;;;;;;2.60;2.00;;;;;;;;;;5129043;27;20030;-62
2022/11/11 13:47:14;;;;;;;6.17;2.93;;;;;;;;;;5114064;27;20786;-62
2022/11/11 13:49:51;;;;;;;2.40;1.70;;;;;;;;;;5092180;28;20057;-62
2022/11/11 13:52:24;;;;;;;5.03;3.23;;;;;;;;;;5113910;28;20055;-62
2022/11/11 13:54:55;;;;;;;6.80;2.47;;;;;;;;;;5113662;28;20115;-62
2022/11/11 13:57:25;;;;;;;2.87;2.13;;;;;;;;;;5113454;28;20027;-63
2022/11/11 13:59:59;;;;;;;4.27;2.43;;;;;;;;;;5112680;28;20024;-64
2022/11/11 14:02:27;;;;;;;2.53;1.93;;;;;;;;;;5124229;27;20024;-62
2022/11/11 14:05:09;;;;;;;4.30;2.47;;;;;;;;;;5126400;27;20054;-63
2022/11/11 14:07:56;;;;;;;4.90;2.33;;;;;;;;;;5115187;27;20096;-62
2022/11/11 14:10:35;;;;;;;3.77;2.57;;;;;;;;;;5109591;27;20031;-63
2022/11/11 14:13:20;;;;;;;2.30;1.73;;;;;;;;;;5113051;28;20055;-62
2022/11/11 14:15:53;;;;;;;21.48;3.58;;;;;;;;;;5113152;28;20028;-64
2022/11/11 14:18:20;;;;;;;2.77;1.97;;;;;;;;;;5113166;28;20020;-63
2022/11/11 14:20:49;;;;;;;5.07;2.60;;;;;;;;;;5113318;28;20389;-63
2022/11/11 14:23:29;;;;;;;4.27;2.03;;;;;;;;;;5100219;27;20086;-63
2022/11/11 14:26:11;;;;;;;8.63;2.27;;;;;;;;;;5128124;27;20575;-63
2022/11/11 15:05:05;;;;;;;3.40;1.97;;;;;;;;;;5063852;27;2508654;-64
2022/11/11 15:07:52;;;;;;;12.83;3.00;;;;;;;;;;5124232;28;20051;-65
2022/11/11 15:10:19;;;;;;;3.17;1.73;;;;;;;;;;5124253;28;20088;-64
2022/11/11 15:13:04;;;;;;;2.93;1.80;;;;;;;;;;5107484;28;20039;-64
2022/11/11 15:15:41;;;;;;;3.80;2.13;;;;;;;;;;5106628;28;20388;-65
2022/11/11 15:18:20;;;;;;;3.27;1.90;;;;;;;;;;5127807;28;20369;-65
2022/11/11 15:21:02;;;;;;;11.87;2.27;;;;;;;;;;5130379;28;20023;-63
2022/11/11 15:23:45;;;;;;;9.43;2.70;;;;;;;;;;5123298;28;20060;-63
2022/11/11 15:26:15;;;;;;;9.57;2.57;;;;;;;;;;5114721;28;20051;-63
2022/11/11 15:28:42;;;;;;;2.53;2.10;;;;;;;;;;5104387;28;20513;-63
2022/11/11 15:31:21;;;;;;;5.53;2.43;;;;;;;;;;5110323;28;20080;-65
2022/11/11 15:33:57;;;;;;;2.63;1.90;;;;;;;;;;5099053;28;20433;-64
2022/11/11 15:36:35;;;;;;;3.87;2.87;;;;;;;;;;5106515;28;20036;-65
2022/11/11 15:39:05;;;;;;;3.33;2.33;;;;;;;;;;5113350;28;20023;-65
2022/11/11 15:41:36;;;;;;;3.73;2.53;;;;;;;;;;5118595;28;20500;-64
2022/11/11 15:44:07;;;;;;;3.63;2.37;;;;;;;;;;5100742;28;20119;-64
2022/11/11 15:46:36;;;;;;;2.50;1.93;;;;;;;;;;5109217;28;20024;-63
2022/11/11 15:49:03;;;;;;;4.53;2.30;;;;;;;;;;5108574;28;20492;-63
2022/11/11 15:51:32;;;;;;;10.47;3.30;;;;;;;;;;5103738;28;20032;-64
2022/11/11 15:54:21;;;;;;;3.67;2.40;;;;;;;;;;5120847;28;20524;-64
2022/11/11 15:56:48;;;;;;;5.03;2.83;;;;;;;;;;5113239;28;20350;-64
2022/11/11 15:59:25;;;;;;;8.47;2.87;;;;;;;;;;5105653;28;20478;-63
2022/11/11 16:01:52;;;;;;;3.63;2.37;;;;;;;;;;5108705;28;20027;-63
2022/11/11 16:04:20;;;;;;;3.88;2.13;;;;;;;;;;5114139;28;20046;-62
2022/11/11 16:06:47;;;;;;;9.40;2.43;;;;;;;;;;5115185;28;20115;-64
2022/11/11 16:09:15;;;;;;;3.65;2.30;;;;;;;;;;5115324;28;20563;-64
2022/11/11 16:11:42;;;;;;;5.13;3.30;;;;;;;;;;5101760;28;20019;-65
2022/11/11 16:14:20;;;;;;;8.52;3.00;;;;;;;;;;5089925;28;20071;-64
2022/11/11 16:16:47;;;;;;;6.43;3.28;;;;;;;;;;5093311;28;20086;-64
2022/11/11 16:19:34;;;;;;;4.90;2.90;;;;;;;;;;5089666;28;20073;-64
2022/11/11 16:22:04;;;;;;;4.20;2.05;;;;;;;;;;5091831;28;20024;-65
2022/11/11 16:24:32;;;;;;;3.67;2.08;;;;;;;;;;5095070;28;20020;-65
2022/11/11 16:27:01;;;;;;;25.48;2.88;;;;;;;;;;5094561;28;20509;-65
2022/11/11 16:29:30;;;;;;;3.92;2.20;;;;;;;;;;5095026;28;20133;-65
2022/11/11 16:31:57;;;;;;;3.50;2.03;;;;;;;;;;5094761;28;20020;-64
2022/11/11 16:34:30;;;;;;;5.22;2.90;;;;;;;;;;5092022;28;20035;-65
2022/11/11 16:37:03;;;;;;;3.75;2.05;;;;;;;;;;5089313;28;20019;-65
2022/11/11 16:39:29;;;;;;;4.20;2.35;;;;;;;;;;5089349;28;20087;-67
2022/11/11 16:41:57;;;;;;;4.82;2.72;;;;;;;;;;5089179;28;20016;-65
2022/11/11 16:44:34;;;;;;;9.68;2.15;;;;;;;;;;5091688;28;20382;-65
2022/11/11 16:47:01;;;;;;;4.78;2.80;;;;;;;;;;5094789;28;20012;-64
2022/11/11 16:49:37;;;;;;;4.95;3.20;;;;;;;;;;5094257;28;20008;-65
2022/11/11 16:52:13;;;;;;;5.25;2.35;;;;;;;;;;5094481;28;20366;-65
2022/11/11 16:54:48;;;;;;;11.70;2.85;;;;;;;;;;5094484;28;20043;-65
2022/11/11 16:57:14;;;;;;;;;;;;;;;;;;5091124;28;20372;-65